sensor_id;sensor_type;location;lat;lon;timestamp;P1;durP1;ratioP1;P2;durP2;ratioP2
58354;SDS011;44160;49.080;19.302;2022-07-10T00:00:08;3.35;;;2.60;;
58354;SDS011;44160;49.080;19.302;2022-07-10T00:02:36;2.47;;;2.20;;
58354;SDS011;44160;49.080;19.302;2022-07-10T00:05:02;3.13;;;2.15;;
58354;SDS011;44160;49.080;19.302;2022-07-10T00:07:28;2.90;;;2.42;;
58354;SDS011;44160;49.080;19.302;2022-07-10T00:09:54;5.05;;;2.50;;
58354;SDS011;44160;49.080;19.302;2022-07-10T00:12:20;3.10;;;2.33;;
58354;SDS011;44160;49.080;19.302;2022-07-10T00:14:46;2.92;;;2.40;;
58354;SDS011;44160;49.080;19.302;2022-07-10T00:17:12;4.03;;;2.85;;
58354;SDS011;44160;49.080;19.302;2022-07-10T00:19:38;3.05;;;2.20;;
58354;SDS011;44160;49.080;19.302;2022-07-10T00:22:04;3.40;;;2.78;;
58354;SDS011;44160;49.080;19.302;2022-07-10T00:24:30;3.88;;;2.75;;
58354;SDS011;44160;49.080;19.302;2022-07-10T00:26:57;7.13;;;2.80;;
58354;SDS011;44160;49.080;19.302;2022-07-10T00:29:23;4.97;;;2.60;;
58354;SDS011;44160;49.080;19.302;2022-07-10T00:31:49;5.85;;;2.95;;
58354;SDS011;44160;49.080;19.302;2022-07-10T00:34:15;2.78;;;2.30;;
58354;SDS011;44160;49.080;19.302;2022-07-10T00:36:41;2.72;;;2.42;;
58354;SDS011;44160;49.080;19.302;2022-07-10T00:39:08;3.33;;;2.58;;
58354;SDS011;44160;49.080;19.302;2022-07-10T00:41:34;2.55;;;2.35;;
58354;SDS011;44160;49.080;19.302;2022-07-10T00:44:01;6.00;;;2.70;;
58354;SDS011;44160;49.080;19.302;2022-07-10T00:46:27;3.53;;;2.85;;
58354;SDS011;44160;49.080;19.302;2022-07-10T00:48:53;3.60;;;2.25;;
58354;SDS011;44160;49.080;19.302;2022-07-10T00:51:20;3.40;;;2.42;;
58354;SDS011;44160;49.080;19.302;2022-07-10T00:53:47;3.72;;;2.90;;
58354;SDS011;44160;49.080;19.302;2022-07-10T00:56:17;3.97;;;2.72;;
58354;SDS011;44160;49.080;19.302;2022-07-10T00:58:45;4.05;;;2.90;;
58354;SDS011;44160;49.080;19.302;2022-07-10T01:01:11;2.63;;;2.40;;
58354;SDS011;44160;49.080;19.302;2022-07-10T01:03:37;2.70;;;2.45;;
58354;SDS011;44160;49.080;19.302;2022-07-10T01:06:03;4.07;;;2.97;;
58354;SDS011;44160;49.080;19.302;2022-07-10T01:08:29;3.25;;;2.60;;
58354;SDS011;44160;49.080;19.302;2022-07-10T01:10:55;3.70;;;2.80;;
58354;SDS011;44160;49.080;19.302;2022-07-10T01:13:22;3.08;;;2.63;;
58354;SDS011;44160;49.080;19.302;2022-07-10T01:15:48;3.38;;;3.00;;
58354;SDS011;44160;49.080;19.302;2022-07-10T01:18:15;3.78;;;3.38;;
58354;SDS011;44160;49.080;19.302;2022-07-10T01:20:41;3.63;;;2.75;;
58354;SDS011;44160;49.080;19.302;2022-07-10T01:23:07;3.60;;;3.00;;
58354;SDS011;44160;49.080;19.302;2022-07-10T01:25:33;2.90;;;2.60;;
58354;SDS011;44160;49.080;19.302;2022-07-10T01:27:59;3.08;;;2.70;;
58354;SDS011;44160;49.080;19.302;2022-07-10T01:30:25;3.42;;;3.10;;
58354;SDS011;44160;49.080;19.302;2022-07-10T01:32:51;3.33;;;2.72;;
58354;SDS011;44160;49.080;19.302;2022-07-10T01:35:18;3.22;;;2.67;;
58354;SDS011;44160;49.080;19.302;2022-07-10T01:37:44;5.60;;;3.40;;
58354;SDS011;44160;49.080;19.302;2022-07-10T01:40:10;3.55;;;2.90;;
58354;SDS011;44160;49.080;19.302;2022-07-10T01:42:37;6.93;;;3.20;;
58354;SDS011;44160;49.080;19.302;2022-07-10T01:45:04;3.70;;;3.00;;
58354;SDS011;44160;49.080;19.302;2022-07-10T01:47:30;7.43;;;3.53;;
58354;SDS011;44160;49.080;19.302;2022-07-10T01:49:56;3.95;;;2.95;;
58354;SDS011;44160;49.080;19.302;2022-07-10T01:52:22;3.65;;;3.10;;
58354;SDS011;44160;49.080;19.302;2022-07-10T01:54:48;3.85;;;2.67;;
58354;SDS011;44160;49.080;19.302;2022-07-10T01:57:14;3.15;;;2.60;;
58354;SDS011;44160;49.080;19.302;2022-07-10T01:59:41;3.08;;;2.78;;
58354;SDS011;44160;49.080;19.302;2022-07-10T02:02:07;4.13;;;2.85;;
58354;SDS011;44160;49.080;19.302;2022-07-10T02:04:33;3.50;;;2.53;;
58354;SDS011;44160;49.080;19.302;2022-07-10T02:07:05;4.10;;;2.60;;
58354;SDS011;44160;49.080;19.302;2022-07-10T02:09:31;6.90;;;2.97;;
58354;SDS011;44160;49.080;19.302;2022-07-10T02:11:58;3.75;;;2.80;;
58354;SDS011;44160;49.080;19.302;2022-07-10T02:14:24;5.47;;;3.10;;
58354;SDS011;44160;49.080;19.302;2022-07-10T02:16:50;4.30;;;3.65;;
58354;SDS011;44160;49.080;19.302;2022-07-10T02:19:16;5.13;;;3.15;;
58354;SDS011;44160;49.080;19.302;2022-07-10T02:21:42;3.28;;;2.80;;
58354;SDS011;44160;49.080;19.302;2022-07-10T02:24:08;3.17;;;2.80;;
58354;SDS011;44160;49.080;19.302;2022-07-10T02:26:34;3.45;;;2.92;;
58354;SDS011;44160;49.080;19.302;2022-07-10T02:29:00;5.70;;;2.80;;
58354;SDS011;44160;49.080;19.302;2022-07-10T02:31:26;4.07;;;3.20;;
58354;SDS011;44160;49.080;19.302;2022-07-10T02:33:52;3.40;;;2.92;;
58354;SDS011;44160;49.080;19.302;2022-07-10T02:36:18;3.20;;;2.60;;
58354;SDS011;44160;49.080;19.302;2022-07-10T02:38:44;4.82;;;3.15;;
58354;SDS011;44160;49.080;19.302;2022-07-10T02:41:10;3.65;;;3.17;;
58354;SDS011;44160;49.080;19.302;2022-07-10T02:43:36;5.50;;;3.30;;
58354;SDS011;44160;49.080;19.302;2022-07-10T02:46:02;3.90;;;2.83;;
58354;SDS011;44160;49.080;19.302;2022-07-10T02:48:28;3.67;;;3.35;;
58354;SDS011;44160;49.080;19.302;2022-07-10T02:50:54;3.70;;;2.92;;
58354;SDS011;44160;49.080;19.302;2022-07-10T02:53:20;4.25;;;2.95;;
58354;SDS011;44160;49.080;19.302;2022-07-10T02:55:47;4.55;;;3.05;;
58354;SDS011;44160;49.080;19.302;2022-07-10T02:58:13;3.85;;;3.45;;
58354;SDS011;44160;49.080;19.302;2022-07-10T03:00:40;4.25;;;3.30;;
58354;SDS011;44160;49.080;19.302;2022-07-10T03:03:06;4.25;;;2.95;;
58354;SDS011;44160;49.080;19.302;2022-07-10T03:05:33;4.03;;;2.30;;
58354;SDS011;44160;49.080;19.302;2022-07-10T03:07:59;3.33;;;2.88;;
58354;SDS011;44160;49.080;19.302;2022-07-10T03:10:25;3.05;;;2.70;;
58354;SDS011;44160;49.080;19.302;2022-07-10T03:12:51;3.65;;;2.83;;
58354;SDS011;44160;49.080;19.302;2022-07-10T03:15:17;3.60;;;3.00;;
58354;SDS011;44160;49.080;19.302;2022-07-10T03:17:43;3.53;;;2.70;;
58354;SDS011;44160;49.080;19.302;2022-07-10T03:20:10;4.05;;;2.88;;
58354;SDS011;44160;49.080;19.302;2022-07-10T03:22:36;4.82;;;3.28;;
58354;SDS011;44160;49.080;19.302;2022-07-10T03:25:02;3.40;;;2.80;;
58354;SDS011;44160;49.080;19.302;2022-07-10T03:27:29;6.78;;;3.83;;
58354;SDS011;44160;49.080;19.302;2022-07-10T03:29:55;9.50;;;4.57;;
58354;SDS011;44160;49.080;19.302;2022-07-10T03:32:21;5.65;;;4.07;;
58354;SDS011;44160;49.080;19.302;2022-07-10T03:34:47;3.78;;;3.13;;
58354;SDS011;44160;49.080;19.302;2022-07-10T03:37:13;4.85;;;3.03;;
58354;SDS011;44160;49.080;19.302;2022-07-10T03:39:39;4.05;;;3.10;;
58354;SDS011;44160;49.080;19.302;2022-07-10T03:42:05;5.45;;;3.83;;
58354;SDS011;44160;49.080;19.302;2022-07-10T03:44:31;5.40;;;4.18;;
58354;SDS011;44160;49.080;19.302;2022-07-10T03:46:58;5.18;;;3.78;;
58354;SDS011;44160;49.080;19.302;2022-07-10T03:49:24;5.57;;;3.53;;
58354;SDS011;44160;49.080;19.302;2022-07-10T03:51:51;4.50;;;3.53;;
58354;SDS011;44160;49.080;19.302;2022-07-10T03:54:17;4.85;;;4.05;;
58354;SDS011;44160;49.080;19.302;2022-07-10T03:56:43;5.32;;;3.30;;
58354;SDS011;44160;49.080;19.302;2022-07-10T03:59:27;3.85;;;3.20;;
58354;SDS011;44160;49.080;19.302;2022-07-10T04:01:53;4.75;;;4.05;;
58354;SDS011;44160;49.080;19.302;2022-07-10T04:04:19;6.05;;;3.83;;
58354;SDS011;44160;49.080;19.302;2022-07-10T04:06:45;4.07;;;3.17;;
58354;SDS011;44160;49.080;19.302;2022-07-10T04:09:11;5.85;;;3.15;;
58354;SDS011;44160;49.080;19.302;2022-07-10T04:11:37;4.45;;;3.38;;
58354;SDS011;44160;49.080;19.302;2022-07-10T04:14:03;6.65;;;3.22;;
58354;SDS011;44160;49.080;19.302;2022-07-10T04:16:29;4.13;;;3.22;;
58354;SDS011;44160;49.080;19.302;2022-07-10T04:18:55;7.50;;;3.63;;
58354;SDS011;44160;49.080;19.302;2022-07-10T04:21:21;10.35;;;4.53;;
58354;SDS011;44160;49.080;19.302;2022-07-10T04:23:48;4.88;;;2.80;;
58354;SDS011;44160;49.080;19.302;2022-07-10T04:26:14;4.90;;;3.13;;
58354;SDS011;44160;49.080;19.302;2022-07-10T04:28:40;3.53;;;3.00;;
58354;SDS011;44160;49.080;19.302;2022-07-10T04:31:06;5.88;;;3.67;;
58354;SDS011;44160;49.080;19.302;2022-07-10T04:33:32;5.55;;;3.08;;
58354;SDS011;44160;49.080;19.302;2022-07-10T04:35:58;3.13;;;2.80;;
58354;SDS011;44160;49.080;19.302;2022-07-10T04:38:24;6.43;;;3.10;;
58354;SDS011;44160;49.080;19.302;2022-07-10T04:40:50;3.40;;;2.83;;
58354;SDS011;44160;49.080;19.302;2022-07-10T04:43:16;6.00;;;3.20;;
58354;SDS011;44160;49.080;19.302;2022-07-10T04:45:42;4.85;;;3.33;;
58354;SDS011;44160;49.080;19.302;2022-07-10T04:48:08;4.15;;;3.03;;
58354;SDS011;44160;49.080;19.302;2022-07-10T04:50:34;4.68;;;3.53;;
58354;SDS011;44160;49.080;19.302;2022-07-10T04:53:00;3.30;;;3.00;;
58354;SDS011;44160;49.080;19.302;2022-07-10T04:55:26;5.22;;;3.63;;
58354;SDS011;44160;49.080;19.302;2022-07-10T04:57:52;3.60;;;2.83;;
58354;SDS011;44160;49.080;19.302;2022-07-10T05:00:18;3.83;;;3.05;;
58354;SDS011;44160;49.080;19.302;2022-07-10T05:02:44;7.70;;;2.95;;
58354;SDS011;44160;49.080;19.302;2022-07-10T05:05:10;4.63;;;3.63;;
58354;SDS011;44160;49.080;19.302;2022-07-10T05:07:36;4.15;;;3.13;;
58354;SDS011;44160;49.080;19.302;2022-07-10T05:10:03;4.50;;;2.85;;
58354;SDS011;44160;49.080;19.302;2022-07-10T05:12:29;3.22;;;2.65;;
58354;SDS011;44160;49.080;19.302;2022-07-10T05:14:55;7.93;;;3.30;;
58354;SDS011;44160;49.080;19.302;2022-07-10T05:17:22;4.03;;;3.15;;
58354;SDS011;44160;49.080;19.302;2022-07-10T05:19:48;4.05;;;3.50;;
58354;SDS011;44160;49.080;19.302;2022-07-10T05:22:16;4.35;;;3.42;;
58354;SDS011;44160;49.080;19.302;2022-07-10T05:24:42;4.05;;;2.88;;
58354;SDS011;44160;49.080;19.302;2022-07-10T05:27:08;3.88;;;3.30;;
58354;SDS011;44160;49.080;19.302;2022-07-10T05:29:34;3.88;;;3.17;;
58354;SDS011;44160;49.080;19.302;2022-07-10T05:32:00;4.70;;;3.50;;
58354;SDS011;44160;49.080;19.302;2022-07-10T05:34:26;7.03;;;3.00;;
58354;SDS011;44160;49.080;19.302;2022-07-10T05:36:52;6.22;;;3.70;;
58354;SDS011;44160;49.080;19.302;2022-07-10T05:39:18;5.88;;;3.75;;
58354;SDS011;44160;49.080;19.302;2022-07-10T05:41:44;6.25;;;4.57;;
58354;SDS011;44160;49.080;19.302;2022-07-10T05:44:10;4.65;;;4.05;;
58354;SDS011;44160;49.080;19.302;2022-07-10T05:46:37;5.70;;;3.40;;
58354;SDS011;44160;49.080;19.302;2022-07-10T05:49:04;4.40;;;3.22;;
58354;SDS011;44160;49.080;19.302;2022-07-10T05:51:30;4.35;;;2.83;;
58354;SDS011;44160;49.080;19.302;2022-07-10T05:53:56;3.80;;;2.90;;
58354;SDS011;44160;49.080;19.302;2022-07-10T05:56:22;4.10;;;3.05;;
58354;SDS011;44160;49.080;19.302;2022-07-10T05:58:48;3.60;;;2.72;;
58354;SDS011;44160;49.080;19.302;2022-07-10T06:01:14;4.20;;;3.05;;
58354;SDS011;44160;49.080;19.302;2022-07-10T06:03:40;3.53;;;2.95;;
58354;SDS011;44160;49.080;19.302;2022-07-10T06:06:06;4.18;;;2.95;;
58354;SDS011;44160;49.080;19.302;2022-07-10T06:08:32;5.07;;;2.95;;
58354;SDS011;44160;49.080;19.302;2022-07-10T06:10:58;3.83;;;3.42;;
58354;SDS011;44160;49.080;19.302;2022-07-10T06:13:25;3.42;;;2.92;;
58354;SDS011;44160;49.080;19.302;2022-07-10T06:15:51;3.40;;;2.72;;
58354;SDS011;44160;49.080;19.302;2022-07-10T06:18:17;6.90;;;2.90;;
58354;SDS011;44160;49.080;19.302;2022-07-10T06:20:43;3.10;;;2.65;;
58354;SDS011;44160;49.080;19.302;2022-07-10T06:23:09;3.00;;;2.63;;
58354;SDS011;44160;49.080;19.302;2022-07-10T06:25:35;3.63;;;3.03;;
58354;SDS011;44160;49.080;19.302;2022-07-10T06:28:01;6.10;;;3.15;;
58354;SDS011;44160;49.080;19.302;2022-07-10T06:30:28;3.95;;;2.88;;
58354;SDS011;44160;49.080;19.302;2022-07-10T06:32:54;3.45;;;3.15;;
58354;SDS011;44160;49.080;19.302;2022-07-10T06:35:20;3.70;;;2.83;;
58354;SDS011;44160;49.080;19.302;2022-07-10T06:37:46;3.47;;;2.90;;
58354;SDS011;44160;49.080;19.302;2022-07-10T06:40:13;4.35;;;2.80;;
58354;SDS011;44160;49.080;19.302;2022-07-10T06:42:40;3.30;;;2.75;;
58354;SDS011;44160;49.080;19.302;2022-07-10T06:45:06;3.65;;;2.70;;
58354;SDS011;44160;49.080;19.302;2022-07-10T06:47:32;6.35;;;2.70;;
58354;SDS011;44160;49.080;19.302;2022-07-10T06:50:17;3.15;;;2.53;;
58354;SDS011;44160;49.080;19.302;2022-07-10T06:52:43;3.38;;;3.08;;
58354;SDS011;44160;49.080;19.302;2022-07-10T06:55:09;3.78;;;2.90;;
58354;SDS011;44160;49.080;19.302;2022-07-10T06:57:35;3.17;;;2.70;;
58354;SDS011;44160;49.080;19.302;2022-07-10T07:00:04;6.85;;;3.35;;
58354;SDS011;44160;49.080;19.302;2022-07-10T07:02:30;4.40;;;3.08;;
58354;SDS011;44160;49.080;19.302;2022-07-10T07:04:56;3.80;;;2.97;;
58354;SDS011;44160;49.080;19.302;2022-07-10T07:07:22;3.97;;;2.88;;
58354;SDS011;44160;49.080;19.302;2022-07-10T07:09:48;4.18;;;3.22;;
58354;SDS011;44160;49.080;19.302;2022-07-10T07:12:17;5.50;;;3.25;;
58354;SDS011;44160;49.080;19.302;2022-07-10T07:14:44;5.32;;;3.08;;
58354;SDS011;44160;49.080;19.302;2022-07-10T07:17:10;3.20;;;2.83;;
58354;SDS011;44160;49.080;19.302;2022-07-10T07:19:39;3.22;;;2.67;;
58354;SDS011;44160;49.080;19.302;2022-07-10T07:22:23;2.72;;;2.53;;
58354;SDS011;44160;49.080;19.302;2022-07-10T07:25:09;3.40;;;2.35;;
58354;SDS011;44160;49.080;19.302;2022-07-10T07:27:35;3.03;;;2.33;;
58354;SDS011;44160;49.080;19.302;2022-07-10T07:30:05;5.22;;;2.53;;
58354;SDS011;44160;49.080;19.302;2022-07-10T07:32:32;2.20;;;2.00;;
58354;SDS011;44160;49.080;19.302;2022-07-10T07:34:58;2.05;;;1.65;;
58354;SDS011;44160;49.080;19.302;2022-07-10T07:37:40;2.30;;;2.10;;
58354;SDS011;44160;49.080;19.302;2022-07-10T07:40:08;3.40;;;2.00;;
58354;SDS011;44160;49.080;19.302;2022-07-10T07:42:34;2.95;;;2.00;;
58354;SDS011;44160;49.080;19.302;2022-07-10T07:45:01;5.70;;;2.22;;
58354;SDS011;44160;49.080;19.302;2022-07-10T07:47:27;3.30;;;2.20;;
58354;SDS011;44160;49.080;19.302;2022-07-10T07:49:53;4.00;;;2.25;;
58354;SDS011;44160;49.080;19.302;2022-07-10T07:52:19;2.80;;;2.20;;
58354;SDS011;44160;49.080;19.302;2022-07-10T07:54:45;4.15;;;2.35;;
58354;SDS011;44160;49.080;19.302;2022-07-10T07:57:11;2.97;;;2.20;;
58354;SDS011;44160;49.080;19.302;2022-07-10T07:59:37;2.22;;;2.03;;
58354;SDS011;44160;49.080;19.302;2022-07-10T08:02:05;2.70;;;2.13;;
58354;SDS011;44160;49.080;19.302;2022-07-10T08:04:31;3.67;;;2.50;;
58354;SDS011;44160;49.080;19.302;2022-07-10T08:06:57;4.35;;;2.38;;
58354;SDS011;44160;49.080;19.302;2022-07-10T08:09:23;2.92;;;2.00;;
58354;SDS011;44160;49.080;19.302;2022-07-10T08:11:49;2.53;;;1.90;;
58354;SDS011;44160;49.080;19.302;2022-07-10T08:14:15;4.50;;;2.47;;
58354;SDS011;44160;49.080;19.302;2022-07-10T08:16:42;2.58;;;1.98;;
58354;SDS011;44160;49.080;19.302;2022-07-10T08:19:08;2.40;;;2.00;;
58354;SDS011;44160;49.080;19.302;2022-07-10T08:21:34;3.35;;;2.30;;
58354;SDS011;44160;49.080;19.302;2022-07-10T08:24:00;1.60;;;1.50;;
58354;SDS011;44160;49.080;19.302;2022-07-10T08:26:26;1.95;;;1.75;;
58354;SDS011;44160;49.080;19.302;2022-07-10T08:28:52;1.83;;;1.60;;
58354;SDS011;44160;49.080;19.302;2022-07-10T08:31:18;4.63;;;1.60;;
58354;SDS011;44160;49.080;19.302;2022-07-10T08:33:44;2.08;;;1.85;;
58354;SDS011;44160;49.080;19.302;2022-07-10T08:36:11;1.70;;;1.60;;
58354;SDS011;44160;49.080;19.302;2022-07-10T08:38:37;4.85;;;1.98;;
58354;SDS011;44160;49.080;19.302;2022-07-10T08:41:03;4.05;;;2.13;;
58354;SDS011;44160;49.080;19.302;2022-07-10T08:43:30;3.42;;;1.42;;
58354;SDS011;44160;49.080;19.302;2022-07-10T08:45:57;1.65;;;1.55;;
58354;SDS011;44160;49.080;19.302;2022-07-10T08:48:24;2.17;;;1.75;;
58354;SDS011;44160;49.080;19.302;2022-07-10T08:50:53;1.73;;;1.33;;
58354;SDS011;44160;49.080;19.302;2022-07-10T08:55:52;1.65;;;1.30;;
58354;SDS011;44160;49.080;19.302;2022-07-10T08:58:18;1.73;;;1.20;;
58354;SDS011;44160;49.080;19.302;2022-07-10T09:00:45;2.17;;;1.20;;
58354;SDS011;44160;49.080;19.302;2022-07-10T09:03:11;1.23;;;1.10;;
58354;SDS011;44160;49.080;19.302;2022-07-10T09:05:37;3.63;;;1.42;;
58354;SDS011;44160;49.080;19.302;2022-07-10T09:08:03;3.08;;;1.30;;
58354;SDS011;44160;49.080;19.302;2022-07-10T09:10:29;2.13;;;1.10;;
58354;SDS011;44160;49.080;19.302;2022-07-10T09:13:00;2.45;;;1.13;;
58354;SDS011;44160;49.080;19.302;2022-07-10T09:15:30;1.02;;;0.90;;
58354;SDS011;44160;49.080;19.302;2022-07-10T09:18:04;1.50;;;1.20;;
58354;SDS011;44160;49.080;19.302;2022-07-10T09:20:34;2.58;;;1.30;;
58354;SDS011;44160;49.080;19.302;2022-07-10T09:23:22;1.40;;;1.30;;
58354;SDS011;44160;49.080;19.302;2022-07-10T09:25:51;3.38;;;1.17;;
58354;SDS011;44160;49.080;19.302;2022-07-10T09:28:18;1.88;;;1.40;;
58354;SDS011;44160;49.080;19.302;2022-07-10T09:30:46;3.28;;;1.40;;
58354;SDS011;44160;49.080;19.302;2022-07-10T09:41:11;1.65;;;1.10;;
58354;SDS011;44160;49.080;19.302;2022-07-10T09:43:51;4.07;;;1.10;;
58354;SDS011;44160;49.080;19.302;2022-07-10T09:46:19;2.30;;;1.02;;
58354;SDS011;44160;49.080;19.302;2022-07-10T09:48:45;2.13;;;1.25;;
58354;SDS011;44160;49.080;19.302;2022-07-10T09:51:11;1.90;;;1.20;;
58354;SDS011;44160;49.080;19.302;2022-07-10T09:53:38;1.45;;;1.00;;
58354;SDS011;44160;49.080;19.302;2022-07-10T09:56:06;1.95;;;1.00;;
58354;SDS011;44160;49.080;19.302;2022-07-10T09:58:33;0.80;;;0.77;;
58354;SDS011;44160;49.080;19.302;2022-07-10T10:01:01;4.00;;;0.95;;
58354;SDS011;44160;49.080;19.302;2022-07-10T10:03:28;1.83;;;1.02;;
58354;SDS011;44160;49.080;19.302;2022-07-10T10:05:58;1.23;;;0.88;;
58354;SDS011;44160;49.080;19.302;2022-07-10T10:11:15;2.67;;;0.95;;
58354;SDS011;44160;49.080;19.302;2022-07-10T10:16:08;0.93;;;0.85;;
58354;SDS011;44160;49.080;19.302;2022-07-10T10:18:35;1.35;;;0.88;;
58354;SDS011;44160;49.080;19.302;2022-07-10T10:21:22;1.90;;;0.80;;
58354;SDS011;44160;49.080;19.302;2022-07-10T10:23:48;1.55;;;1.00;;
58354;SDS011;44160;49.080;19.302;2022-07-10T10:26:14;0.82;;;0.82;;
58354;SDS011;44160;49.080;19.302;2022-07-10T10:28:41;2.45;;;1.17;;
58354;SDS011;44160;49.080;19.302;2022-07-10T10:31:07;1.08;;;0.80;;
58354;SDS011;44160;49.080;19.302;2022-07-10T10:36:04;2.22;;;1.08;;
58354;SDS011;44160;49.080;19.302;2022-07-10T10:41:29;1.50;;;0.98;;
58354;SDS011;44160;49.080;19.302;2022-07-10T10:46:34;0.80;;;0.80;;
58354;SDS011;44160;49.080;19.302;2022-07-10T10:49:04;0.85;;;0.80;;
58354;SDS011;44160;49.080;19.302;2022-07-10T10:54:20;1.75;;;0.77;;
58354;SDS011;44160;49.080;19.302;2022-07-10T10:57:07;0.60;;;0.60;;
58354;SDS011;44160;49.080;19.302;2022-07-10T10:59:48;1.95;;;1.40;;
58354;SDS011;44160;49.080;19.302;2022-07-10T11:04:50;1.33;;;0.60;;
58354;SDS011;44160;49.080;19.302;2022-07-10T11:15:41;2.03;;;0.60;;
58354;SDS011;44160;49.080;19.302;2022-07-10T11:18:09;1.15;;;0.70;;
58354;SDS011;44160;49.080;19.302;2022-07-10T11:20:40;1.00;;;0.65;;
58354;SDS011;44160;49.080;19.302;2022-07-10T11:23:26;2.38;;;0.75;;
58354;SDS011;44160;49.080;19.302;2022-07-10T11:25:59;1.27;;;1.15;;
58354;SDS011;44160;49.080;19.302;2022-07-10T11:28:46;1.10;;;0.80;;
58354;SDS011;44160;49.080;19.302;2022-07-10T11:31:12;1.48;;;0.90;;
58354;SDS011;44160;49.080;19.302;2022-07-10T11:33:39;1.63;;;1.00;;
58354;SDS011;44160;49.080;19.302;2022-07-10T11:36:11;2.17;;;0.80;;
58354;SDS011;44160;49.080;19.302;2022-07-10T11:38:38;3.30;;;0.80;;
58354;SDS011;44160;49.080;19.302;2022-07-10T11:41:11;1.13;;;0.90;;
58354;SDS011;44160;49.080;19.302;2022-07-10T11:43:45;3.50;;;1.40;;
58354;SDS011;44160;49.080;19.302;2022-07-10T11:46:11;1.05;;;0.75;;
58354;SDS011;44160;49.080;19.302;2022-07-10T11:48:40;2.55;;;0.90;;
58354;SDS011;44160;49.080;19.302;2022-07-10T11:51:20;1.35;;;0.90;;
58354;SDS011;44160;49.080;19.302;2022-07-10T11:56:26;0.85;;;0.70;;
58354;SDS011;44160;49.080;19.302;2022-07-10T11:58:56;1.95;;;1.00;;
58354;SDS011;44160;49.080;19.302;2022-07-10T12:01:23;1.27;;;0.82;;
58354;SDS011;44160;49.080;19.302;2022-07-10T12:06:21;3.58;;;1.02;;
58354;SDS011;44160;49.080;19.302;2022-07-10T12:08:48;1.83;;;0.90;;
58354;SDS011;44160;49.080;19.302;2022-07-10T12:11:15;1.52;;;0.93;;
58354;SDS011;44160;49.080;19.302;2022-07-10T12:13:42;3.38;;;0.95;;
58354;SDS011;44160;49.080;19.302;2022-07-10T12:16:08;1.75;;;0.90;;
58354;SDS011;44160;49.080;19.302;2022-07-10T12:18:34;1.55;;;0.98;;
58354;SDS011;44160;49.080;19.302;2022-07-10T12:21:00;2.55;;;0.90;;
58354;SDS011;44160;49.080;19.302;2022-07-10T12:23:27;1.10;;;0.90;;
58354;SDS011;44160;49.080;19.302;2022-07-10T12:25:54;2.72;;;1.00;;
58354;SDS011;44160;49.080;19.302;2022-07-10T12:28:21;1.75;;;1.00;;
58354;SDS011;44160;49.080;19.302;2022-07-10T12:30:48;1.67;;;1.10;;
58354;SDS011;44160;49.080;19.302;2022-07-10T12:33:15;1.95;;;1.10;;
58354;SDS011;44160;49.080;19.302;2022-07-10T12:36:00;1.85;;;0.95;;
58354;SDS011;44160;49.080;19.302;2022-07-10T12:38:27;2.63;;;1.10;;
58354;SDS011;44160;49.080;19.302;2022-07-10T12:41:12;2.90;;;1.40;;
58354;SDS011;44160;49.080;19.302;2022-07-10T12:43:39;2.22;;;1.00;;
58354;SDS011;44160;49.080;19.302;2022-07-10T12:46:18;2.00;;;0.80;;
58354;SDS011;44160;49.080;19.302;2022-07-10T12:49:01;2.40;;;1.08;;
58354;SDS011;44160;49.080;19.302;2022-07-10T12:51:28;1.20;;;0.73;;
58354;SDS011;44160;49.080;19.302;2022-07-10T12:53:54;2.00;;;1.10;;
58354;SDS011;44160;49.080;19.302;2022-07-10T12:56:27;0.80;;;0.70;;
58354;SDS011;44160;49.080;19.302;2022-07-10T12:58:53;1.42;;;0.90;;
58354;SDS011;44160;49.080;19.302;2022-07-10T13:01:19;1.20;;;0.85;;
58354;SDS011;44160;49.080;19.302;2022-07-10T13:03:46;2.35;;;0.98;;
58354;SDS011;44160;49.080;19.302;2022-07-10T13:06:28;1.13;;;1.00;;
58354;SDS011;44160;49.080;19.302;2022-07-10T13:08:54;1.60;;;1.02;;
58354;SDS011;44160;49.080;19.302;2022-07-10T13:11:20;1.77;;;0.80;;
58354;SDS011;44160;49.080;19.302;2022-07-10T13:13:47;2.80;;;1.15;;
58354;SDS011;44160;49.080;19.302;2022-07-10T13:16:13;3.25;;;1.20;;
58354;SDS011;44160;49.080;19.302;2022-07-10T13:18:41;2.53;;;1.17;;
58354;SDS011;44160;49.080;19.302;2022-07-10T13:21:07;2.97;;;1.23;;
58354;SDS011;44160;49.080;19.302;2022-07-10T13:23:35;2.40;;;1.10;;
58354;SDS011;44160;49.080;19.302;2022-07-10T13:26:01;1.98;;;1.27;;
58354;SDS011;44160;49.080;19.302;2022-07-10T13:28:28;1.40;;;1.05;;
58354;SDS011;44160;49.080;19.302;2022-07-10T13:30:54;3.83;;;1.30;;
58354;SDS011;44160;49.080;19.302;2022-07-10T13:33:21;3.92;;;1.20;;
58354;SDS011;44160;49.080;19.302;2022-07-10T13:35:49;5.13;;;1.00;;
58354;SDS011;44160;49.080;19.302;2022-07-10T13:38:15;4.65;;;1.50;;
58354;SDS011;44160;49.080;19.302;2022-07-10T13:40:43;2.80;;;1.08;;
58354;SDS011;44160;49.080;19.302;2022-07-10T13:43:09;4.80;;;1.52;;
58354;SDS011;44160;49.080;19.302;2022-07-10T13:45:37;2.10;;;1.10;;
58354;SDS011;44160;49.080;19.302;2022-07-10T13:48:08;3.03;;;1.33;;
58354;SDS011;44160;49.080;19.302;2022-07-10T13:50:36;2.70;;;1.20;;
58354;SDS011;44160;49.080;19.302;2022-07-10T13:53:02;3.33;;;1.20;;
58354;SDS011;44160;49.080;19.302;2022-07-10T13:55:32;4.43;;;1.30;;
58354;SDS011;44160;49.080;19.302;2022-07-10T13:57:59;2.38;;;1.40;;
58354;SDS011;44160;49.080;19.302;2022-07-10T14:00:25;3.60;;;1.35;;
58354;SDS011;44160;49.080;19.302;2022-07-10T14:02:51;2.92;;;1.20;;
58354;SDS011;44160;49.080;19.302;2022-07-10T14:05:20;4.47;;;1.13;;
58354;SDS011;44160;49.080;19.302;2022-07-10T14:07:54;2.15;;;1.05;;
58354;SDS011;44160;49.080;19.302;2022-07-10T14:10:21;4.28;;;1.30;;
58354;SDS011;44160;49.080;19.302;2022-07-10T14:12:47;6.47;;;1.50;;
58354;SDS011;44160;49.080;19.302;2022-07-10T14:15:13;5.70;;;1.30;;
58354;SDS011;44160;49.080;19.302;2022-07-10T14:17:47;4.18;;;1.25;;
58354;SDS011;44160;49.080;19.302;2022-07-10T14:20:21;2.47;;;1.30;;
58354;SDS011;44160;49.080;19.302;2022-07-10T14:22:47;3.85;;;1.20;;
58354;SDS011;44160;49.080;19.302;2022-07-10T14:25:16;4.07;;;1.20;;
58354;SDS011;44160;49.080;19.302;2022-07-10T14:27:42;3.92;;;1.02;;
58354;SDS011;44160;49.080;19.302;2022-07-10T14:30:09;3.70;;;1.30;;
58354;SDS011;44160;49.080;19.302;2022-07-10T14:32:35;3.13;;;1.25;;
58354;SDS011;44160;49.080;19.302;2022-07-10T14:35:01;4.25;;;1.10;;
58354;SDS011;44160;49.080;19.302;2022-07-10T14:37:27;4.88;;;0.95;;
58354;SDS011;44160;49.080;19.302;2022-07-10T14:39:53;3.45;;;0.95;;
58354;SDS011;44160;49.080;19.302;2022-07-10T14:42:19;1.33;;;1.00;;
58354;SDS011;44160;49.080;19.302;2022-07-10T14:44:45;3.22;;;1.02;;
58354;SDS011;44160;49.080;19.302;2022-07-10T14:47:11;3.33;;;1.13;;
58354;SDS011;44160;49.080;19.302;2022-07-10T14:49:37;4.47;;;1.05;;
58354;SDS011;44160;49.080;19.302;2022-07-10T14:52:03;2.38;;;1.00;;
58354;SDS011;44160;49.080;19.302;2022-07-10T14:54:29;4.15;;;1.25;;
58354;SDS011;44160;49.080;19.302;2022-07-10T14:56:55;2.78;;;1.20;;
58354;SDS011;44160;49.080;19.302;2022-07-10T14:59:21;5.82;;;1.30;;
58354;SDS011;44160;49.080;19.302;2022-07-10T15:01:48;3.22;;;0.82;;
58354;SDS011;44160;49.080;19.302;2022-07-10T15:04:16;2.28;;;1.00;;
58354;SDS011;44160;49.080;19.302;2022-07-10T15:06:42;3.95;;;1.00;;
58354;SDS011;44160;49.080;19.302;2022-07-10T15:09:08;4.80;;;1.23;;
58354;SDS011;44160;49.080;19.302;2022-07-10T15:11:34;2.95;;;1.08;;
58354;SDS011;44160;49.080;19.302;2022-07-10T15:14:01;3.17;;;1.27;;
58354;SDS011;44160;49.080;19.302;2022-07-10T15:16:29;5.18;;;0.90;;